Time;durP1;ratioP1;P1;durP2;ratioP2;P2;SDS_P1;SDS_P2;PMS_P1;PMS_P2;Temp;Humidity;BMP_temperature;BMP_pressure;BME280_temperature;BME280_humidity;BME280_pressure;Samples;Min_cycle;Max_cycle;Signal;HPM_P1;HPM_P2
2022/03/14 00:01:40;;;;;;;16.85;9.95;;;6.30;29.60;;;;;;5035730;28;20029;-61
2022/03/14 00:04:06;;;;;;;15.70;9.20;;;6.20;29.80;;;;;;5037310;28;20017;-61
2022/03/14 00:06:32;;;;;;;15.95;9.95;;;6.20;29.80;;;;;;5036487;28;20025;-61
2022/03/14 00:08:58;;;;;;;15.75;9.32;;;6.20;29.80;;;;;;5036624;28;20040;-62
2022/03/14 00:11:27;;;;;;;16.60;9.68;;;6.10;29.80;;;;;;5053341;28;20021;-61
2022/03/14 00:13:56;;;;;;;17.92;10.43;;;6.10;29.80;;;;;;5054071;28;20031;-63
2022/03/14 00:16:25;;;;;;;15.40;9.65;;;6.20;29.80;;;;;;5054001;28;20074;-62
2022/03/14 00:18:53;;;;;;;15.18;9.30;;;6.10;29.90;;;;;;5036856;28;20036;-61
2022/03/14 00:21:23;;;;;;;15.90;9.23;;;6.10;29.90;;;;;;5055771;28;20090;-62
2022/03/14 00:23:53;;;;;;;17.58;10.23;;;6.10;29.90;;;;;;5054378;28;20139;-61
2022/03/14 00:26:22;;;;;;;17.30;9.98;;;6.00;29.90;;;;;;5054278;28;20025;-61
2022/03/14 00:28:48;;;;;;;17.05;9.93;;;6.00;30.00;;;;;;5054278;28;20116;-61
2022/03/14 00:31:14;;;;;;;17.60;9.70;;;6.00;29.90;;;;;;5054181;28;20102;-63
2022/03/14 00:33:41;;;;;;;15.85;8.90;;;6.00;29.90;;;;;;5054336;28;20027;-61
2022/03/14 00:36:08;;;;;;;15.00;8.98;;;6.00;29.90;;;;;;5053232;28;20025;-61
2022/03/14 00:38:35;;;;;;;16.15;10.02;;;6.00;29.90;;;;;;5035728;28;20035;-61
2022/03/14 00:41:01;;;;;;;15.55;9.13;;;6.10;29.80;;;;;;5035972;28;20032;-64
2022/03/14 00:43:28;;;;;;;15.00;9.43;;;6.10;29.80;;;;;;5053201;28;20059;-61
2022/03/14 00:46:12;;;;;;;14.23;8.25;;;6.10;29.70;;;;;;5054371;28;20021;-60
2022/03/14 00:48:38;;;;;;;17.88;9.27;;;6.10;29.80;;;;;;5053200;28;20025;-60
2022/03/14 00:51:05;;;;;;;16.13;9.38;;;6.10;29.70;;;;;;5053403;28;20025;-61
2022/03/14 00:53:31;;;;;;;16.90;9.52;;;6.10;29.80;;;;;;5034907;28;20547;-61
2022/03/14 00:55:58;;;;;;;17.98;9.55;;;6.10;29.90;;;;;;5034956;28;20032;-61
2022/03/14 00:58:26;;;;;;;15.13;9.05;;;6.00;29.80;;;;;;5052678;28;20025;-61
2022/03/14 01:00:52;;;;;;;18.08;9.77;;;6.00;29.80;;;;;;5035274;28;20029;-61
2022/03/14 01:03:17;;;;;;;15.60;8.75;;;6.00;29.90;;;;;;5052499;28;20432;-60
2022/03/14 01:05:43;;;;;;;13.80;8.95;;;5.90;29.90;;;;;;5053192;28;20025;-63
2022/03/14 01:08:09;;;;;;;18.30;9.27;;;6.00;29.90;;;;;;5035025;28;20037;-60
2022/03/14 01:10:35;;;;;;;15.32;8.40;;;6.00;29.90;;;;;;5052638;28;20385;-61
2022/03/14 01:13:04;;;;;;;14.07;8.88;;;6.00;29.90;;;;;;5035082;28;20064;-60
2022/03/14 01:15:34;;;;;;;15.10;9.27;;;6.00;29.90;;;;;;5034511;28;20025;-61
2022/03/14 01:18:00;;;;;;;15.48;9.40;;;6.00;30.40;;;;;;5052713;28;20466;-61
2022/03/14 01:20:26;;;;;;;16.77;9.68;;;6.00;29.90;;;;;;5034375;28;20288;-62
2022/03/14 01:22:55;;;;;;;14.73;8.95;;;5.90;30.00;;;;;;5063573;28;20076;-61
2022/03/14 01:25:23;;;;;;;17.25;8.95;;;5.90;30.10;;;;;;5071978;28;20028;-63
2022/03/14 01:27:50;;;;;;;19.80;9.05;;;5.80;30.20;;;;;;5072627;28;20020;-61
2022/03/14 01:30:17;;;;;;;16.02;8.88;;;5.80;30.20;;;;;;5072295;28;20398;-61
2022/03/14 01:32:43;;;;;;;14.40;8.68;;;5.80;30.20;;;;;;5072416;28;20025;-61
2022/03/14 01:35:08;;;;;;;17.58;9.15;;;5.80;30.20;;;;;;5072459;28;20025;-61
2022/03/14 01:37:34;;;;;;;13.98;8.68;;;5.70;30.20;;;;;;5072434;28;20350;-61
2022/03/14 01:40:00;;;;;;;15.20;7.70;;;5.80;30.30;;;;;;5072360;28;20087;-61
2022/03/14 01:42:26;;;;;;;16.88;8.63;;;5.80;30.30;;;;;;5070808;28;20475;-61
2022/03/14 01:44:52;;;;;;;13.52;8.52;;;5.70;30.30;;;;;;5072474;28;20051;-60
2022/03/14 01:47:18;;;;;;;13.60;8.48;;;5.60;30.40;;;;;;5071825;28;20433;-61
2022/03/14 01:49:45;;;;;;;13.77;8.55;;;5.60;30.60;;;;;;5070931;28;20081;-61
2022/03/14 01:52:13;;;;;;;16.30;8.60;;;5.50;30.70;;;;;;5072009;28;20024;-66
2022/03/14 01:54:40;;;;;;;17.98;8.98;;;5.50;30.70;;;;;;5071144;28;20107;-60
2022/03/14 01:57:07;;;;;;;13.63;8.75;;;5.50;30.70;;;;;;5070998;28;20107;-61
2022/03/14 01:59:33;;;;;;;16.27;8.57;;;5.50;30.80;;;;;;5070303;28;20033;-61
2022/03/14 02:02:00;;;;;;;13.77;8.18;;;5.40;31.00;;;;;;5071729;28;20016;-60
2022/03/14 02:04:26;;;;;;;14.57;8.95;;;5.30;31.10;;;;;;5069733;28;20078;-61
2022/03/14 02:06:52;;;;;;;14.88;9.13;;;5.30;31.20;;;;;;5071723;28;20108;-61
2022/03/14 02:09:19;;;;;;;14.27;9.15;;;5.30;31.30;;;;;;5071152;28;20059;-61
2022/03/14 02:11:56;;;;;;;13.93;8.23;;;5.30;31.30;;;;;;5071751;28;20389;-61
2022/03/14 02:14:23;;;;;;;15.98;9.23;;;5.30;31.40;;;;;;5071218;28;20029;-62
2022/03/14 02:16:49;;;;;;;15.95;9.00;;;5.20;31.50;;;;;;5071444;28;20024;-62
2022/03/14 02:19:16;;;;;;;15.77;8.48;;;5.20;31.60;;;;;;5071159;28;20031;-61
2022/03/14 02:21:42;;;;;;;14.07;8.35;;;5.20;31.60;;;;;;5065231;28;20057;-61
2022/03/14 02:24:07;;;;;;;16.08;8.85;;;5.20;31.60;;;;;;5033618;28;20371;-61
2022/03/14 02:26:40;;;;;;;13.98;8.20;;;5.10;31.70;;;;;;5033493;28;20029;-61
2022/03/14 02:29:10;;;;;;;15.55;8.77;;;5.10;31.80;;;;;;5052072;28;20086;-61
2022/03/14 02:31:37;;;;;;;14.65;9.15;;;5.10;31.80;;;;;;5033389;28;20032;-61
2022/03/14 02:34:04;;;;;;;14.70;9.13;;;5.20;31.80;;;;;;5033318;28;20029;-61
2022/03/14 02:36:30;;;;;;;18.17;8.80;;;5.20;31.80;;;;;;5051095;28;20119;-61
2022/03/14 02:38:55;;;;;;;15.57;8.95;;;5.20;31.70;;;;;;5033820;28;20037;-61
2022/03/14 02:41:25;;;;;;;15.27;8.48;;;5.20;31.70;;;;;;5051056;28;20067;-61
2022/03/14 02:43:51;;;;;;;14.45;8.93;;;5.20;31.70;;;;;;5051647;28;20033;-62
2022/03/14 02:46:17;;;;;;;14.85;9.00;;;5.20;31.70;;;;;;5050951;28;20370;-61
2022/03/14 02:48:43;;;;;;;17.70;9.02;;;5.10;31.80;;;;;;5051274;28;20037;-61
2022/03/14 02:51:08;;;;;;;13.48;8.32;;;5.00;31.90;;;;;;5051598;28;20052;-61
2022/03/14 02:53:34;;;;;;;16.52;9.07;;;5.00;32.00;;;;;;5050601;28;20056;-61
2022/03/14 02:56:00;;;;;;;13.32;8.48;;;5.00;32.10;;;;;;5051306;28;20070;-61
2022/03/14 02:58:28;;;;;;;15.52;7.80;;;5.00;32.10;;;;;;5051701;28;20538;-60
2022/03/14 03:00:54;;;;;;;14.32;8.60;;;5.00;32.10;;;;;;5055614;28;20525;-60
2022/03/14 03:03:19;;;;;;;13.18;8.65;;;5.00;32.30;;;;;;5054670;28;20365;-61
2022/03/14 03:05:45;;;;;;;16.88;9.05;;;5.00;32.30;;;;;;5037228;28;20399;-61
2022/03/14 03:08:12;;;;;;;17.75;9.35;;;5.10;32.30;;;;;;5037264;28;20041;-61
2022/03/14 03:10:38;;;;;;;15.13;9.00;;;5.10;32.40;;;;;;5054934;28;20021;-61
2022/03/14 03:13:04;;;;;;;15.63;8.60;;;5.10;32.50;;;;;;5037253;28;20029;-61
2022/03/14 03:15:30;;;;;;;13.40;8.60;;;5.00;32.60;;;;;;5054936;28;20096;-61
2022/03/14 03:17:56;;;;;;;17.02;8.35;;;5.00;32.60;;;;;;5037277;28;20025;-61
2022/03/14 03:20:22;;;;;;;15.50;8.48;;;5.00;32.70;;;;;;5054394;28;20025;-61
2022/03/14 03:22:49;;;;;;;13.88;9.20;;;5.00;32.80;;;;;;5054580;28;20120;-61
2022/03/14 03:25:15;;;;;;;15.63;8.73;;;5.00;32.70;;;;;;5054310;28;20024;-63
2022/03/14 03:27:41;;;;;;;16.48;8.45;;;5.00;32.70;;;;;;5055001;28;20067;-61
2022/03/14 03:30:07;;;;;;;13.38;8.35;;;5.00;32.80;;;;;;5054513;28;20033;-62
2022/03/14 03:32:34;;;;;;;16.13;8.35;;;5.00;32.90;;;;;;5054323;28;20347;-62
2022/03/14 03:35:00;;;;;;;14.48;8.80;;;5.00;32.90;;;;;;5054822;28;20025;-61
2022/03/14 03:37:25;;;;;;;14.90;9.35;;;5.00;33.00;;;;;;5054470;28;20029;-61
2022/03/14 03:39:51;;;;;;;15.05;9.30;;;5.00;33.00;;;;;;5054820;28;20381;-61
2022/03/14 03:42:17;;;;;;;14.43;8.88;;;4.90;33.10;;;;;;5036539;28;20025;-61
2022/03/14 03:44:43;;;;;;;14.98;9.38;;;4.90;33.20;;;;;;5054589;28;20543;-61
2022/03/14 03:47:09;;;;;;;14.48;8.32;;;4.90;33.30;;;;;;5036718;28;20029;-61
2022/03/14 03:49:35;;;;;;;15.82;9.73;;;4.80;33.20;;;;;;5053805;28;20040;-61
2022/03/14 03:52:01;;;;;;;17.10;8.88;;;4.80;33.30;;;;;;5054764;28;20040;-61
2022/03/14 03:54:27;;;;;;;16.42;8.30;;;4.80;33.20;;;;;;5053608;28;20104;-61
2022/03/14 03:56:52;;;;;;;15.98;8.93;;;4.80;33.20;;;;;;5036533;28;20112;-61
2022/03/14 03:59:19;;;;;;;16.85;9.45;;;4.80;33.30;;;;;;5053345;28;20033;-60
2022/03/14 04:01:45;;;;;;;16.02;9.40;;;4.80;33.20;;;;;;5054042;28;20546;-60
2022/03/14 04:04:11;;;;;;;15.55;9.10;;;4.80;34.00;;;;;;5054141;28;20519;-61
2022/03/14 04:06:41;;;;;;;16.10;9.30;;;4.70;33.30;;;;;;5053211;28;20017;-60
2022/03/14 04:09:07;;;;;;;12.10;8.60;;;4.70;33.30;;;;;;5053501;28;20029;-60
2022/03/14 04:11:33;;;;;;;15.27;8.98;;;4.70;33.40;;;;;;5034609;28;20103;-61
2022/03/14 04:13:59;;;;;;;18.58;9.75;;;4.70;33.50;;;;;;5036234;28;20035;-60
2022/03/14 04:16:26;;;;;;;15.93;9.27;;;4.70;33.50;;;;;;5035485;28;20060;-61
2022/03/14 04:18:52;;;;;;;19.23;9.43;;;4.60;33.40;;;;;;5053814;28;20073;-60
2022/03/14 04:21:18;;;;;;;15.65;9.60;;;4.60;33.50;;;;;;5035364;28;20048;-62
2022/03/14 04:23:44;;;;;;;14.40;9.05;;;4.60;33.40;;;;;;5035868;28;20033;-61
2022/03/14 04:26:09;;;;;;;14.07;8.90;;;4.70;33.50;;;;;;5053245;28;20481;-61
2022/03/14 04:28:36;;;;;;;15.27;8.98;;;4.70;33.60;;;;;;5052743;28;20061;-62
2022/03/14 04:31:05;;;;;;;14.52;8.73;;;4.60;33.80;;;;;;5053438;28;20405;-61
2022/03/14 04:33:31;;;;;;;16.02;9.18;;;4.70;34.00;;;;;;5034752;28;20071;-60
2022/03/14 04:35:58;;;;;;;17.27;9.57;;;4.70;34.60;;;;;;5035283;28;20082;-60
2022/03/14 04:38:27;;;;;;;20.77;10.00;;;4.70;34.20;;;;;;5052260;28;20504;-61
2022/03/14 04:40:53;;;;;;;13.85;8.73;;;4.60;34.20;;;;;;5053023;28;20032;-62
2022/03/14 04:43:21;;;;;;;14.38;9.70;;;4.70;34.40;;;;;;5052179;28;20393;-62
2022/03/14 04:45:47;;;;;;;16.90;9.23;;;4.70;34.50;;;;;;5052972;28;20103;-60
2022/03/14 04:48:13;;;;;;;16.42;9.43;;;4.70;34.90;;;;;;5035002;28;20083;-63
2022/03/14 04:50:39;;;;;;;14.35;8.98;;;4.60;34.80;;;;;;5052244;28;20418;-60
2022/03/14 04:53:06;;;;;;;15.68;8.93;;;4.70;34.90;;;;;;5052788;28;20025;-61
2022/03/14 04:55:34;;;;;;;14.95;9.70;;;4.60;35.00;;;;;;5052300;28;20029;-61
2022/03/14 04:58:00;;;;;;;15.30;9.40;;;4.70;35.00;;;;;;5053070;28;20071;-61
2022/03/14 05:00:28;;;;;;;16.65;9.27;;;4.70;35.00;;;;;;5052080;28;20021;-61
2022/03/14 05:03:00;;;;;;;14.60;8.80;;;4.70;35.30;;;;;;5052823;28;20079;-61
2022/03/14 05:05:26;;;;;;;19.07;10.30;;;4.70;35.20;;;;;;5052232;28;20025;-61
2022/03/14 05:07:52;;;;;;;19.20;10.68;;;4.70;35.30;;;;;;5052398;28;20037;-60
2022/03/14 05:10:17;;;;;;;18.42;10.55;;;4.70;35.70;;;;;;5051744;28;20021;-62
2022/03/14 05:12:43;;;;;;;16.77;9.68;;;4.60;35.80;;;;;;5052379;28;20037;-61
2022/03/14 05:15:09;;;;;;;20.40;10.18;;;4.60;36.00;;;;;;5034101;28;20025;-61
2022/03/14 05:17:35;;;;;;;15.20;9.15;;;4.50;36.00;;;;;;5034020;28;20036;-61
2022/03/14 05:20:03;;;;;;;15.75;9.48;;;4.50;36.20;;;;;;5052191;28;20033;-61
2022/03/14 05:22:29;;;;;;;17.35;9.55;;;4.40;36.50;;;;;;5051626;28;20061;-62
2022/03/14 05:24:54;;;;;;;19.20;9.90;;;4.40;36.50;;;;;;5033720;28;20036;-61
2022/03/14 05:27:20;;;;;;;17.65;9.82;;;4.40;36.40;;;;;;5034012;28;20040;-61
2022/03/14 05:29:46;;;;;;;17.42;9.55;;;4.40;36.90;;;;;;5052045;28;20037;-61
2022/03/14 05:32:11;;;;;;;15.07;9.57;;;4.30;37.00;;;;;;5033273;28;20033;-61
2022/03/14 05:34:37;;;;;;;23.80;11.35;;;4.40;37.10;;;;;;5051840;28;20393;-61
2022/03/14 05:37:03;;;;;;;19.08;10.93;;;4.40;37.00;;;;;;5051774;28;20025;-63
2022/03/14 05:39:29;;;;;;;16.40;9.35;;;4.40;37.30;;;;;;5051507;28;20032;-61
2022/03/14 05:41:55;;;;;;;15.75;9.50;;;4.40;37.60;;;;;;5052057;28;20052;-61
2022/03/14 05:44:21;;;;;;;22.05;9.55;;;4.40;37.60;;;;;;5032776;28;20025;-62
2022/03/14 05:46:47;;;;;;;16.50;10.30;;;4.40;38.10;;;;;;5034143;28;20031;-61
2022/03/14 05:49:12;;;;;;;17.27;9.65;;;4.40;38.10;;;;;;5051306;28;20033;-61
2022/03/14 05:51:39;;;;;;;16.77;9.60;;;4.50;38.30;;;;;;5051818;28;20021;-61
2022/03/14 05:54:05;;;;;;;15.80;10.15;;;4.50;38.50;;;;;;5051563;28;20025;-61
2022/03/14 05:56:31;;;;;;;16.35;9.98;;;4.50;38.40;;;;;;5052266;28;20223;-61
2022/03/14 05:58:57;;;;;;;18.00;9.80;;;4.50;38.80;;;;;;5052334;28;20035;-61
2022/03/14 06:01:23;;;;;;;18.90;10.15;;;4.50;39.30;;;;;;5051465;28;20350;-60
2022/03/14 06:03:53;;;;;;;16.92;10.38;;;4.50;39.30;;;;;;5052028;28;20089;-61
2022/03/14 06:06:18;;;;;;;15.48;10.63;;;4.60;39.40;;;;;;5033475;28;20083;-61
2022/03/14 06:08:44;;;;;;;16.83;10.75;;;4.60;39.40;;;;;;5051878;28;20040;-61
2022/03/14 06:11:12;;;;;;;17.20;9.70;;;4.70;39.50;;;;;;5051056;28;20025;-61
2022/03/14 06:13:39;;;;;;;17.58;9.48;;;4.70;39.50;;;;;;5051651;28;20043;-62
2022/03/14 06:16:05;;;;;;;16.92;9.95;;;4.70;39.70;;;;;;5016827;28;20490;-61
2022/03/14 06:18:31;;;;;;;17.40;10.45;;;4.80;39.80;;;;;;5051505;28;20025;-61
2022/03/14 06:20:57;;;;;;;14.65;9.45;;;4.90;39.80;;;;;;5051288;28;20052;-60
2022/03/14 06:23:22;;;;;;;19.45;10.90;;;4.90;39.70;;;;;;5051227;28;20159;-61
2022/03/14 06:25:49;;;;;;;15.43;9.82;;;5.00;39.90;;;;;;5033328;28;20367;-61
2022/03/14 06:28:15;;;;;;;16.60;10.32;;;5.00;40.00;;;;;;5032939;28;20044;-62
2022/03/14 06:30:41;;;;;;;18.02;10.68;;;5.00;40.10;;;;;;5051469;28;20029;-61
2022/03/14 06:33:07;;;;;;;16.77;10.50;;;5.10;40.20;;;;;;5050302;28;20213;-61
2022/03/14 06:35:33;;;;;;;17.65;10.05;;;5.10;40.20;;;;;;5051401;28;20029;-61
2022/03/14 06:38:02;;;;;;;32.15;11.73;;;5.20;40.20;;;;;;5050371;28;20075;-62
2022/03/14 06:40:28;;;;;;;18.92;10.70;;;5.30;40.20;;;;;;5034215;28;20219;-62
2022/03/14 06:42:53;;;;;;;19.38;10.73;;;5.30;40.20;;;;;;5051521;28;20067;-63
2022/03/14 06:45:23;;;;;;;19.10;9.93;;;5.40;40.10;;;;;;5050779;28;20029;-62
2022/03/14 06:47:50;;;;;;;18.50;10.55;;;5.50;40.30;;;;;;5051564;28;20037;-62
2022/03/14 06:50:16;;;;;;;20.58;10.25;;;5.50;40.40;;;;;;5050398;28;20037;-62
2022/03/14 06:52:42;;;;;;;25.00;10.73;;;5.50;40.60;;;;;;5050780;28;20422;-62
2022/03/14 06:55:09;;;;;;;19.08;11.38;;;5.60;40.60;;;;;;5032799;28;20108;-61
2022/03/14 06:57:35;;;;;;;20.85;10.20;;;5.60;40.60;;;;;;5051185;28;20105;-61
2022/03/14 07:00:00;;;;;;;15.27;10.10;;;5.60;40.80;;;;;;5050653;28;20059;-60
2022/03/14 07:02:29;;;;;;;18.58;10.07;;;5.70;41.00;;;;;;5050535;28;20025;-63
2022/03/14 07:04:55;;;;;;;23.10;11.38;;;5.70;41.20;;;;;;5033066;28;20025;-61
2022/03/14 07:07:20;;;;;;;15.93;10.15;;;5.80;41.30;;;;;;5050637;28;20025;-61
2022/03/14 07:09:46;;;;;;;16.98;10.23;;;5.80;41.30;;;;;;5050830;28;20095;-61
2022/03/14 07:12:13;;;;;;;17.13;9.82;;;5.90;41.70;;;;;;5032501;28;20112;-61
2022/03/14 07:14:39;;;;;;;17.08;11.70;;;5.90;41.70;;;;;;5032731;28;20527;-61
2022/03/14 07:17:05;;;;;;;16.73;11.50;;;7.20;41.70;;;;;;5050146;28;20099;-63
2022/03/14 07:19:31;;;;;;;21.08;12.48;;;10.40;38.10;;;;;;5051134;28;20474;-61
2022/03/14 07:21:57;;;;;;;15.57;11.77;;;13.30;34.00;;;;;;5050359;28;20045;-62
2022/03/14 07:24:22;;;;;;;14.02;11.38;;;15.50;29.80;;;;;;5050455;28;20032;-62
2022/03/14 07:26:49;;;;;;;13.63;11.50;;;17.10;28.00;;;;;;5033163;28;20357;-62
2022/03/14 07:29:15;;;;;;;13.18;11.00;;;18.30;26.80;;;;;;5032270;28;20037;-62
2022/03/14 07:31:41;;;;;;;25.48;11.63;;;19.20;25.90;;;;;;5032944;28;20025;-61
2022/03/14 07:34:08;;;;;;;16.88;11.52;;;20.40;25.40;;;;;;5050425;28;20021;-62
2022/03/14 07:36:34;;;;;;;13.68;11.02;;;21.40;24.40;;;;;;5050772;28;20413;-62
2022/03/14 07:39:04;;;;;;;12.20;9.95;;;22.20;23.80;;;;;;5050890;28;20029;-62
2022/03/14 07:41:30;;;;;;;15.40;10.93;;;23.20;23.10;;;;;;5032776;28;20470;-61
2022/03/14 07:44:15;;;;;;;15.65;11.85;;;24.00;22.60;;;;;;5032815;28;20083;-62
2022/03/14 07:46:41;;;;;;;13.98;11.32;;;24.80;22.20;;;;;;5036498;28;20025;-61
2022/03/14 07:49:08;;;;;;;16.17;11.35;;;25.50;21.50;;;;;;5053668;28;20531;-63
2022/03/14 07:51:33;;;;;;;14.30;10.65;;;25.40;21.30;;;;;;5053804;28;20071;-62
2022/03/14 07:53:59;;;;;;;14.82;11.00;;;25.60;21.20;;;;;;5035678;28;20025;-60
2022/03/14 07:56:25;;;;;;;20.92;12.07;;;26.00;21.00;;;;;;5053310;28;20433;-61
2022/03/14 07:58:51;;;;;;;17.90;14.20;;;26.20;20.90;;;;;;5053561;28;20060;-61
2022/03/14 08:01:20;;;;;;;14.38;11.55;;;26.50;20.60;;;;;;5034792;28;20017;-61
2022/03/14 08:03:45;;;;;;;15.90;11.75;;;26.90;20.60;;;;;;5054209;28;20029;-61
2022/03/14 08:06:22;;;;;;;16.48;10.13;;;27.40;21.00;;;;;;5035808;28;20028;-61
2022/03/14 08:08:50;;;;;;;23.17;10.60;;;27.60;20.20;;;;;;5054287;28;20029;-62
2022/03/14 08:11:17;;;;;;;15.80;10.05;;;27.70;20.40;;;;;;5052954;28;20086;-62
2022/03/14 08:13:43;;;;;;;13.68;9.85;;;27.40;20.10;;;;;;5052714;28;20033;-63
2022/03/14 08:16:09;;;;;;;14.57;10.60;;;27.00;20.10;;;;;;5053224;28;20051;-61
2022/03/14 08:18:35;;;;;;;11.82;9.82;;;26.50;20.20;;;;;;5053719;28;20040;-61
2022/03/14 08:21:02;;;;;;;11.60;9.90;;;26.50;20.30;;;;;;5053870;28;20032;-61
2022/03/14 08:23:28;;;;;;;13.02;10.20;;;26.50;20.10;;;;;;5036408;28;20065;-60
2022/03/14 08:25:54;;;;;;;12.57;10.60;;;26.00;20.30;;;;;;5054101;28;20083;-60
2022/03/14 08:28:20;;;;;;;14.90;11.63;;;25.90;20.40;;;;;;5053842;28;20492;-62
2022/03/14 08:30:48;;;;;;;15.65;11.10;;;25.90;20.50;;;;;;5035981;28;20025;-60
2022/03/14 08:33:16;;;;;;;12.00;10.70;;;26.20;20.50;;;;;;5053339;28;20033;-61
2022/03/14 08:35:44;;;;;;;13.43;10.93;;;25.80;20.20;;;;;;5054212;28;20065;-60
2022/03/14 08:40:54;;;;;;;14.98;9.05;;;21.50;21.90;;;;;;5054186;28;20040;-61
2022/03/14 08:43:19;;;;;;;18.58;8.90;;;19.30;23.60;;;;;;5035391;28;20025;-61
2022/03/14 08:45:45;;;;;;;13.40;9.27;;;17.70;24.90;;;;;;5034586;28;20099;-61
2022/03/14 08:48:11;;;;;;;14.35;8.90;;;16.50;25.90;;;;;;5052536;28;20111;-58
2022/03/14 08:50:38;;;;;;;15.63;10.23;;;15.60;26.70;;;;;;5053257;28;20529;-61
2022/03/14 08:53:04;;;;;;;14.27;9.95;;;14.90;27.70;;;;;;5053824;28;20024;-60
2022/03/14 08:55:30;;;;;;;15.32;10.57;;;14.40;28.10;;;;;;5035070;28;20029;-61
2022/03/14 08:57:56;;;;;;;14.05;9.63;;;13.90;28.80;;;;;;5035276;28;20029;-60
2022/03/14 09:00:24;;;;;;;15.32;9.63;;;13.30;29.20;;;;;;5052946;28;20454;-61
2022/03/14 09:02:51;;;;;;;17.42;10.82;;;12.90;29.80;;;;;;5035781;28;20040;-62
2022/03/14 09:05:17;;;;;;;19.38;9.70;;;12.60;30.40;;;;;;5035180;28;20170;-60
2022/03/14 09:07:43;;;;;;;15.70;9.30;;;12.40;31.40;;;;;;5035404;28;20075;-61
2022/03/14 09:10:12;;;;;;;18.88;10.77;;;12.00;32.00;;;;;;5053074;28;20484;-63
2022/03/14 09:12:39;;;;;;;20.55;11.02;;;11.70;32.40;;;;;;5053581;28;20021;-62
2022/03/14 09:15:07;;;;;;;21.60;9.80;;;11.50;32.80;;;;;;5052883;28;20025;-62
2022/03/14 09:17:33;;;;;;;13.65;9.40;;;11.50;32.90;;;;;;5051992;28;20037;-63
2022/03/14 09:20:01;;;;;;;19.58;9.07;;;11.50;33.30;;;;;;5034888;28;20386;-62
2022/03/14 09:22:27;;;;;;;15.02;9.45;;;11.40;33.40;;;;;;5054160;28;20041;-63
2022/03/14 09:24:55;;;;;;;19.17;9.73;;;11.40;33.60;;;;;;5035309;28;20032;-60
2022/03/14 09:27:21;;;;;;;16.85;9.63;;;11.40;33.80;;;;;;5051412;28;20029;-63
2022/03/14 09:29:47;;;;;;;17.13;9.38;;;11.30;33.80;;;;;;5053032;28;20035;-62
2022/03/14 09:32:14;;;;;;;17.58;9.90;;;11.30;33.60;;;;;;5035546;28;20024;-61
2022/03/14 09:34:40;;;;;;;15.52;9.95;;;11.40;33.90;;;;;;5032553;28;20029;-62
2022/03/14 09:37:06;;;;;;;14.98;9.82;;;11.40;33.90;;;;;;5033153;28;20036;-67
2022/03/14 09:39:33;;;;;;;19.45;11.63;;;11.40;33.80;;;;;;5033644;28;20059;-58
2022/03/14 09:42:00;;;;;;;15.68;10.25;;;11.40;33.80;;;;;;5034395;28;20021;-62
2022/03/14 09:44:29;;;;;;;12.32;9.10;;;11.50;33.70;;;;;;5034037;28;20082;-68
2022/03/14 09:47:00;;;;;;;15.10;8.98;;;11.60;33.90;;;;;;5052506;28;20086;-63
2022/03/14 09:49:27;;;;;;;19.42;9.70;;;11.40;34.20;;;;;;5033615;28;20029;-60
2022/03/14 09:51:54;;;;;;;15.57;9.25;;;11.30;34.20;;;;;;5051659;28;20171;-60
2022/03/14 09:54:23;;;;;;;15.80;9.32;;;11.30;34.30;;;;;;5033368;28;20522;-61
2022/03/14 09:56:48;;;;;;;16.40;10.02;;;11.40;34.50;;;;;;5034140;28;20029;-62
2022/03/14 09:59:14;;;;;;;13.93;9.05;;;11.50;34.50;;;;;;5051475;28;20101;-63
2022/03/14 10:01:41;;;;;;;16.77;9.10;;;11.60;34.40;;;;;;5051849;28;20104;-61
2022/03/14 10:07:00;;;;;;;16.40;9.35;;;11.80;34.30;;;;;;5088304;27;20397;-61
2022/03/14 10:09:26;;;;;;;16.25;8.85;;;11.90;33.70;;;;;;5087128;28;20078;-60
2022/03/14 10:11:52;;;;;;;20.40;10.10;;;12.00;33.70;;;;;;5089906;28;20433;-62
2022/03/14 10:14:19;;;;;;;16.77;9.73;;;12.10;33.60;;;;;;5087306;28;20024;-64
2022/03/14 10:16:45;;;;;;;14.35;10.38;;;12.10;33.50;;;;;;5094652;28;20066;-61
2022/03/14 10:19:20;;;;;;;14.48;9.52;;;12.20;33.50;;;;;;5088487;28;20085;-62
2022/03/14 10:21:50;;;;;;;14.73;10.02;;;12.30;33.60;;;;;;5088453;28;20036;-61
2022/03/14 10:24:21;;;;;;;19.75;9.25;;;12.40;33.30;;;;;;5089194;28;20028;-62
2022/03/14 10:26:47;;;;;;;13.77;9.25;;;12.60;33.20;;;;;;5085829;28;20035;-62
2022/03/14 10:29:14;;;;;;;16.67;8.98;;;12.60;33.10;;;;;;5087108;28;20025;-62
2022/03/14 10:31:43;;;;;;;19.08;10.10;;;12.60;33.40;;;;;;5085584;28;20063;-63
2022/03/14 10:34:12;;;;;;;18.58;9.20;;;12.60;33.30;;;;;;5087296;28;20134;-61
2022/03/14 10:36:47;;;;;;;16.65;9.93;;;12.70;33.10;;;;;;5084302;28;20072;-61
2022/03/14 10:39:13;;;;;;;14.70;9.85;;;12.90;33.00;;;;;;5084032;28;20198;-58
2022/03/14 10:41:40;;;;;;;13.98;10.15;;;13.00;32.80;;;;;;5082505;28;20036;-59
2022/03/14 10:44:07;;;;;;;16.42;9.55;;;13.10;32.70;;;;;;5087443;28;20028;-59
2022/03/14 10:46:37;;;;;;;15.60;10.32;;;13.20;32.70;;;;;;5087745;28;20036;-57
2022/03/14 10:49:09;;;;;;;21.00;11.82;;;13.20;32.70;;;;;;5085652;28;20119;-54
2022/03/14 10:51:54;;;;;;;15.25;10.07;;;13.30;32.60;;;;;;5084835;28;20595;-59
2022/03/14 10:54:20;;;;;;;15.90;10.18;;;13.50;32.60;;;;;;5087609;28;20031;-56
2022/03/14 10:57:09;;;;;;;17.05;10.02;;;13.70;32.40;;;;;;5085547;28;20036;-57
2022/03/14 10:59:38;;;;;;;21.10;10.48;;;13.80;32.20;;;;;;5080927;28;20082;-58
2022/03/14 11:02:06;;;;;;;16.05;10.40;;;13.80;32.00;;;;;;5081478;28;20048;-55
2022/03/14 11:04:45;;;;;;;12.60;9.45;;;13.90;32.00;;;;;;5086726;28;20024;-58
2022/03/14 11:07:12;;;;;;;13.25;9.30;;;14.00;31.80;;;;;;5085003;28;20123;-61
2022/03/14 11:09:44;;;;;;;14.85;10.00;;;13.90;31.80;;;;;;5087487;28;20057;-58
2022/03/14 11:12:13;;;;;;;14.30;10.02;;;14.10;31.80;;;;;;5082504;28;20028;-58
2022/03/14 11:14:39;;;;;;;15.65;10.25;;;14.20;31.70;;;;;;5084512;28;20107;-61
2022/03/14 11:17:18;;;;;;;15.32;9.93;;;14.30;31.60;;;;;;5075142;28;20036;-61
2022/03/14 11:19:45;;;;;;;18.13;9.95;;;14.50;31.50;;;;;;5071523;28;20105;-61
2022/03/14 11:22:13;;;;;;;15.85;10.32;;;14.50;31.60;;;;;;5070101;28;20020;-60
2022/03/14 11:24:41;;;;;;;14.32;10.10;;;14.60;31.50;;;;;;5070968;28;20145;-60
2022/03/14 11:27:28;;;;;;;13.70;10.23;;;14.70;31.50;;;;;;5069670;28;20024;-58
2022/03/14 11:30:03;;;;;;;18.73;10.85;;;14.70;31.40;;;;;;5072796;28;20036;-57
2022/03/14 11:32:29;;;;;;;22.80;12.15;;;14.90;31.40;;;;;;5072352;28;20044;-61
2022/03/14 11:34:55;;;;;;;19.38;10.77;;;14.90;31.30;;;;;;5070734;28;20109;-59
2022/03/14 11:37:21;;;;;;;18.08;10.82;;;15.10;31.10;;;;;;5072958;28;20032;-62
2022/03/14 11:39:48;;;;;;;16.45;10.80;;;15.20;31.00;;;;;;5071616;28;20032;-61
2022/03/14 11:42:15;;;;;;;13.00;10.55;;;15.20;30.90;;;;;;5069480;28;20025;-61
2022/03/14 11:44:44;;;;;;;18.25;12.15;;;15.20;30.80;;;;;;5087926;28;20056;-60
2022/03/14 11:47:12;;;;;;;14.80;10.45;;;15.20;31.00;;;;;;5081180;28;20085;-58
2022/03/14 11:49:39;;;;;;;15.98;11.63;;;15.20;31.00;;;;;;5084457;28;20098;-60
2022/03/14 11:52:18;;;;;;;17.35;12.40;;;15.20;31.00;;;;;;5068415;28;20028;-59
2022/03/14 11:55:00;;;;;;;18.23;11.00;;;15.40;30.90;;;;;;5070861;28;20020;-58
2022/03/14 11:57:36;;;;;;;15.63;11.48;;;15.50;30.80;;;;;;5070935;28;20027;-60
2022/03/14 12:00:21;;;;;;;16.15;11.48;;;15.50;30.70;;;;;;5070398;28;20067;-63
2022/03/14 12:02:48;;;;;;;19.92;11.88;;;15.60;30.70;;;;;;5069359;28;20040;-61
2022/03/14 12:05:20;;;;;;;15.90;11.65;;;15.60;30.60;;;;;;5071659;28;20052;-61
2022/03/14 12:07:46;;;;;;;19.50;13.13;;;15.50;30.70;;;;;;5073344;28;20046;-61
2022/03/14 12:10:31;;;;;;;22.35;11.50;;;15.60;30.70;;;;;;5073040;28;20024;-61
2022/03/14 12:13:01;;;;;;;17.10;11.70;;;15.70;30.50;;;;;;5070017;28;20036;-61
2022/03/14 12:15:36;;;;;;;18.20;10.88;;;15.80;30.40;;;;;;5069440;28;20082;-63
2022/03/14 12:18:02;;;;;;;22.25;12.63;;;16.00;30.30;;;;;;5073449;28;20086;-60
2022/03/14 12:20:29;;;;;;;14.88;11.60;;;16.00;30.30;;;;;;5070125;28;20484;-62
2022/03/14 12:22:55;;;;;;;19.20;11.65;;;16.00;30.20;;;;;;5069112;28;20028;-60
2022/03/14 12:25:41;;;;;;;17.38;10.48;;;16.10;30.30;;;;;;5071211;28;20116;-65
2022/03/14 12:28:31;;;;;;;15.90;10.88;;;16.10;30.20;;;;;;5072156;28;20082;-59
2022/03/14 12:31:18;;;;;;;18.90;11.45;;;16.20;30.20;;;;;;5067937;28;20038;-62
2022/03/14 12:33:49;;;;;;;15.70;11.10;;;16.20;30.10;;;;;;5064085;28;20041;-59
2022/03/14 12:36:24;;;;;;;14.05;10.43;;;16.20;30.10;;;;;;5069773;28;20115;-59
2022/03/14 12:39:12;;;;;;;16.38;10.73;;;16.20;30.10;;;;;;5066398;28;20025;-58
2022/03/14 12:41:40;;;;;;;19.73;12.18;;;16.20;30.10;;;;;;5067336;28;20381;-62
2022/03/14 12:44:22;;;;;;;17.92;9.65;;;16.20;30.00;;;;;;5060428;28;20029;-59
2022/03/14 12:46:55;;;;;;;17.98;10.80;;;16.20;30.20;;;;;;5074969;28;20036;-60